Denali National Park, AK

7:16 AM AKDT on May 24, 2015 (GMT -0800)
Denali Park | | Change Station
CLOSE
Current Station
Airport
Location: Denali Park,
Elevation: 1719 ft
Nearby Weather Stations

Elev 1719 ft 63.73 °N, 148.91 °W | Updated 20 minutes ago

Partly Cloudy
Partly Cloudy
52 °F
Feels Like 52 °F
N
4
Wind Variable Wind from SE

Today
High -- | Low -- °F
--% Chance of Precip.
Yesterday
High -- | Low -- °F
Precip. -- in
4:28 AM 11:35 PM
Waxing Crescent, 40% visible
Pressure 30.02 in
Visibility 10.0 miles
Clouds Few 7000 ft
Dew Point 41 °F
Humidity 67%
Rainfall 0.00 in
Snow Depth Not available.
UV 1 out of 12
Pollen Not available.
Air Quality Not available.
Flu Activity Local Activity
METAR PAIN 241456Z AUTO 13003KT 10SM FEW070 11/05 A3002 RMK AO1 52010

More Conditions Fewer Conditions

Pressure 30.02 in
Visibility 10.0 miles
Clouds Few 7000 ft
Dew Point 41 °F
Humidity 67%
Rainfall 0.00 in
Snow Depth Not available.
UV 1 out of 12
Pollen Not available.
Air Quality Not available.
Flu Activity Local Activity
METAR PAIN 241456Z AUTO 13003KT 10SM FEW070 11/05 A3002 RMK AO1 52010

More Conditions Fewer Conditions

10-Day Weather Forecast

Almanac

Astronomy

May. 24, 2015 Rise Set
Actual Time
Civil Twilight
Nautical Twilight
Astronomical Twilight
Moon
Length of Visible Light
Length of Day
Tomorrow will be .
, % of the Moon is Illuminated

Today's Extremes

State Highs State Lows

Community

WunderPhotos

Upload Photos

1,823,764 photos uploaded!

WunderBlogs® & News

Nearby

Air Quality

  Air Quality AQ Index Pollutant
Not available.

Snow Depth

Station Depth Elevation

Earthquake Activity

City Distance Mag. Time & Date
Minimum magnitude displayed is 2.5.

Coastal Water Temperatures

Place Temperature

Stations

Nearby Weather Stations

Station Location Temp. Windchill Dew Point Humidity Wind Precip. Elev Updated Type